sensor_id;sensor_type;location;lat;lon;timestamp;P1;durP1;ratioP1;P2;durP2;ratioP2
18360;SDS011;9308;48.550;9.108;2023-07-24T00:01:26;11.20;;;8.43;;
18360;SDS011;9308;48.550;9.108;2023-07-24T00:03:52;9.10;;;7.60;;
18360;SDS011;9308;48.550;9.108;2023-07-24T00:06:19;9.83;;;7.43;;
18360;SDS011;9308;48.550;9.108;2023-07-24T00:08:45;9.53;;;7.03;;
18360;SDS011;9308;48.550;9.108;2023-07-24T00:11:10;11.00;;;8.40;;
18360;SDS011;9308;48.550;9.108;2023-07-24T00:13:36;8.67;;;7.80;;
18360;SDS011;9308;48.550;9.108;2023-07-24T00:16:05;10.20;;;7.17;;
18360;SDS011;9308;48.550;9.108;2023-07-24T00:18:35;11.60;;;8.20;;
18360;SDS011;9308;48.550;9.108;2023-07-24T00:21:00;8.63;;;7.80;;
18360;SDS011;9308;48.550;9.108;2023-07-24T00:23:26;9.97;;;8.03;;
18360;SDS011;9308;48.550;9.108;2023-07-24T00:25:51;9.70;;;7.70;;
18360;SDS011;9308;48.550;9.108;2023-07-24T00:28:17;10.03;;;8.20;;
18360;SDS011;9308;48.550;9.108;2023-07-24T00:30:42;9.07;;;7.40;;
18360;SDS011;9308;48.550;9.108;2023-07-24T00:33:08;11.03;;;8.20;;
18360;SDS011;9308;48.550;9.108;2023-07-24T00:35:33;10.00;;;8.50;;
18360;SDS011;9308;48.550;9.108;2023-07-24T00:37:59;10.23;;;7.87;;
18360;SDS011;9308;48.550;9.108;2023-07-24T00:40:24;8.23;;;6.93;;
18360;SDS011;9308;48.550;9.108;2023-07-24T00:42:49;10.10;;;8.13;;
18360;SDS011;9308;48.550;9.108;2023-07-24T00:45:15;8.93;;;8.00;;
18360;SDS011;9308;48.550;9.108;2023-07-24T00:47:41;10.27;;;8.37;;
18360;SDS011;9308;48.550;9.108;2023-07-24T00:50:07;10.83;;;8.00;;
18360;SDS011;9308;48.550;9.108;2023-07-24T00:52:33;9.63;;;8.00;;
18360;SDS011;9308;48.550;9.108;2023-07-24T00:54:59;10.70;;;9.30;;
18360;SDS011;9308;48.550;9.108;2023-07-24T00:57:25;10.87;;;8.57;;
18360;SDS011;9308;48.550;9.108;2023-07-24T00:59:50;11.63;;;7.80;;
18360;SDS011;9308;48.550;9.108;2023-07-24T01:02:16;10.60;;;8.50;;
18360;SDS011;9308;48.550;9.108;2023-07-24T01:04:41;10.00;;;7.77;;
18360;SDS011;9308;48.550;9.108;2023-07-24T01:07:07;9.83;;;7.90;;
18360;SDS011;9308;48.550;9.108;2023-07-24T01:09:33;9.60;;;8.43;;
18360;SDS011;9308;48.550;9.108;2023-07-24T01:12:02;9.37;;;7.60;;
18360;SDS011;9308;48.550;9.108;2023-07-24T01:14:36;10.57;;;8.73;;
18360;SDS011;9308;48.550;9.108;2023-07-24T01:17:22;9.47;;;7.30;;
18360;SDS011;9308;48.550;9.108;2023-07-24T01:19:50;9.43;;;7.63;;
18360;SDS011;9308;48.550;9.108;2023-07-24T01:27:51;8.70;;;7.60;;
18360;SDS011;9308;48.550;9.108;2023-07-24T01:30:17;9.37;;;8.17;;
18360;SDS011;9308;48.550;9.108;2023-07-24T01:32:45;10.73;;;8.93;;
18360;SDS011;9308;48.550;9.108;2023-07-24T01:35:11;10.30;;;8.60;;
18360;SDS011;9308;48.550;9.108;2023-07-24T01:37:37;8.93;;;7.67;;
18360;SDS011;9308;48.550;9.108;2023-07-24T01:40:06;10.13;;;8.83;;
18360;SDS011;9308;48.550;9.108;2023-07-24T01:42:33;10.30;;;7.93;;
18360;SDS011;9308;48.550;9.108;2023-07-24T01:44:59;10.37;;;8.00;;
18360;SDS011;9308;48.550;9.108;2023-07-24T01:47:24;10.33;;;8.37;;
18360;SDS011;9308;48.550;9.108;2023-07-24T01:49:50;11.10;;;9.30;;
18360;SDS011;9308;48.550;9.108;2023-07-24T01:52:16;9.07;;;8.17;;
18360;SDS011;9308;48.550;9.108;2023-07-24T01:54:43;10.57;;;8.70;;
18360;SDS011;9308;48.550;9.108;2023-07-24T01:57:08;10.73;;;8.53;;
18360;SDS011;9308;48.550;9.108;2023-07-24T01:59:34;10.13;;;8.53;;
18360;SDS011;9308;48.550;9.108;2023-07-24T02:01:59;8.77;;;7.63;;
18360;SDS011;9308;48.550;9.108;2023-07-24T02:04:24;8.53;;;7.73;;
18360;SDS011;9308;48.550;9.108;2023-07-24T02:06:50;10.00;;;8.83;;
18360;SDS011;9308;48.550;9.108;2023-07-24T02:09:17;9.83;;;7.97;;
18360;SDS011;9308;48.550;9.108;2023-07-24T02:11:43;13.47;;;8.60;;
18360;SDS011;9308;48.550;9.108;2023-07-24T02:14:08;12.00;;;8.97;;
18360;SDS011;9308;48.550;9.108;2023-07-24T02:16:35;8.43;;;7.30;;
18360;SDS011;9308;48.550;9.108;2023-07-24T02:19:00;10.87;;;9.30;;
18360;SDS011;9308;48.550;9.108;2023-07-24T02:21:26;10.07;;;7.77;;
18360;SDS011;9308;48.550;9.108;2023-07-24T02:23:51;9.87;;;7.57;;
18360;SDS011;9308;48.550;9.108;2023-07-24T02:26:17;10.40;;;8.13;;
18360;SDS011;9308;48.550;9.108;2023-07-24T02:28:42;11.70;;;8.17;;
18360;SDS011;9308;48.550;9.108;2023-07-24T02:31:07;12.97;;;8.67;;
18360;SDS011;9308;48.550;9.108;2023-07-24T02:33:33;11.50;;;8.80;;
18360;SDS011;9308;48.550;9.108;2023-07-24T02:35:58;10.83;;;7.93;;
18360;SDS011;9308;48.550;9.108;2023-07-24T02:38:25;11.03;;;8.07;;
18360;SDS011;9308;48.550;9.108;2023-07-24T02:40:51;9.90;;;7.50;;
18360;SDS011;9308;48.550;9.108;2023-07-24T02:43:16;11.23;;;8.60;;
18360;SDS011;9308;48.550;9.108;2023-07-24T02:45:41;10.00;;;8.10;;
18360;SDS011;9308;48.550;9.108;2023-07-24T02:48:07;9.20;;;7.90;;
18360;SDS011;9308;48.550;9.108;2023-07-24T02:50:33;9.97;;;8.30;;
18360;SDS011;9308;48.550;9.108;2023-07-24T02:52:58;9.23;;;8.30;;
18360;SDS011;9308;48.550;9.108;2023-07-24T02:55:24;11.87;;;8.43;;
18360;SDS011;9308;48.550;9.108;2023-07-24T02:57:49;12.07;;;8.73;;
18360;SDS011;9308;48.550;9.108;2023-07-24T03:00:15;10.00;;;8.50;;
18360;SDS011;9308;48.550;9.108;2023-07-24T03:02:40;11.40;;;8.07;;
18360;SDS011;9308;48.550;9.108;2023-07-24T03:05:06;10.67;;;8.50;;
18360;SDS011;9308;48.550;9.108;2023-07-24T03:07:32;10.63;;;8.13;;
18360;SDS011;9308;48.550;9.108;2023-07-24T03:09:57;7.70;;;6.80;;
18360;SDS011;9308;48.550;9.108;2023-07-24T03:12:23;9.33;;;7.80;;
18360;SDS011;9308;48.550;9.108;2023-07-24T03:14:49;11.10;;;8.90;;
18360;SDS011;9308;48.550;9.108;2023-07-24T03:17:14;11.77;;;8.37;;
18360;SDS011;9308;48.550;9.108;2023-07-24T03:19:40;11.27;;;8.33;;
18360;SDS011;9308;48.550;9.108;2023-07-24T03:22:06;9.90;;;8.00;;
18360;SDS011;9308;48.550;9.108;2023-07-24T03:24:31;9.13;;;6.90;;
18360;SDS011;9308;48.550;9.108;2023-07-24T03:26:57;11.37;;;7.90;;
18360;SDS011;9308;48.550;9.108;2023-07-24T03:29:22;10.00;;;7.57;;
18360;SDS011;9308;48.550;9.108;2023-07-24T03:31:47;10.50;;;7.33;;
18360;SDS011;9308;48.550;9.108;2023-07-24T03:34:13;10.00;;;8.47;;
18360;SDS011;9308;48.550;9.108;2023-07-24T03:36:38;9.10;;;7.93;;
18360;SDS011;9308;48.550;9.108;2023-07-24T03:39:06;12.20;;;8.70;;
18360;SDS011;9308;48.550;9.108;2023-07-24T03:41:32;11.80;;;8.93;;
18360;SDS011;9308;48.550;9.108;2023-07-24T03:43:57;10.40;;;8.10;;
18360;SDS011;9308;48.550;9.108;2023-07-24T03:46:23;11.13;;;7.90;;
18360;SDS011;9308;48.550;9.108;2023-07-24T03:48:48;10.13;;;8.03;;
18360;SDS011;9308;48.550;9.108;2023-07-24T03:51:15;9.50;;;7.90;;
18360;SDS011;9308;48.550;9.108;2023-07-24T03:53:41;9.60;;;8.23;;
18360;SDS011;9308;48.550;9.108;2023-07-24T03:56:06;10.30;;;7.50;;
18360;SDS011;9308;48.550;9.108;2023-07-24T03:58:32;8.20;;;7.37;;
18360;SDS011;9308;48.550;9.108;2023-07-24T04:00:57;8.83;;;7.83;;
18360;SDS011;9308;48.550;9.108;2023-07-24T04:03:23;8.60;;;6.80;;
18360;SDS011;9308;48.550;9.108;2023-07-24T04:05:48;9.40;;;7.80;;
18360;SDS011;9308;48.550;9.108;2023-07-24T04:08:14;9.77;;;7.83;;
18360;SDS011;9308;48.550;9.108;2023-07-24T04:10:39;10.23;;;7.90;;
18360;SDS011;9308;48.550;9.108;2023-07-24T04:13:05;8.53;;;7.43;;
18360;SDS011;9308;48.550;9.108;2023-07-24T04:15:30;10.40;;;7.87;;
18360;SDS011;9308;48.550;9.108;2023-07-24T04:17:55;10.40;;;8.10;;
18360;SDS011;9308;48.550;9.108;2023-07-24T04:20:21;10.13;;;7.97;;
18360;SDS011;9308;48.550;9.108;2023-07-24T04:22:46;9.03;;;7.77;;
18360;SDS011;9308;48.550;9.108;2023-07-24T04:25:12;9.20;;;8.20;;
18360;SDS011;9308;48.550;9.108;2023-07-24T04:27:37;9.77;;;8.43;;
18360;SDS011;9308;48.550;9.108;2023-07-24T04:30:02;10.20;;;8.57;;
18360;SDS011;9308;48.550;9.108;2023-07-24T04:32:28;12.33;;;8.50;;
18360;SDS011;9308;48.550;9.108;2023-07-24T04:34:54;11.83;;;8.30;;
18360;SDS011;9308;48.550;9.108;2023-07-24T04:37:19;9.60;;;8.10;;
18360;SDS011;9308;48.550;9.108;2023-07-24T04:39:44;9.50;;;8.03;;
18360;SDS011;9308;48.550;9.108;2023-07-24T04:42:10;10.17;;;8.17;;
18360;SDS011;9308;48.550;9.108;2023-07-24T04:44:35;9.37;;;8.47;;
18360;SDS011;9308;48.550;9.108;2023-07-24T04:47:01;11.00;;;8.60;;
18360;SDS011;9308;48.550;9.108;2023-07-24T04:49:30;10.40;;;8.83;;
18360;SDS011;9308;48.550;9.108;2023-07-24T04:51:58;11.63;;;8.70;;
18360;SDS011;9308;48.550;9.108;2023-07-24T04:54:23;14.33;;;9.77;;
18360;SDS011;9308;48.550;9.108;2023-07-24T04:56:49;10.70;;;8.83;;
18360;SDS011;9308;48.550;9.108;2023-07-24T04:59:14;11.50;;;8.00;;
18360;SDS011;9308;48.550;9.108;2023-07-24T05:01:40;11.10;;;8.90;;
18360;SDS011;9308;48.550;9.108;2023-07-24T05:04:05;10.93;;;8.13;;
18360;SDS011;9308;48.550;9.108;2023-07-24T05:06:31;12.23;;;8.57;;
18360;SDS011;9308;48.550;9.108;2023-07-24T05:08:56;10.30;;;7.73;;
18360;SDS011;9308;48.550;9.108;2023-07-24T05:11:22;9.53;;;7.40;;
18360;SDS011;9308;48.550;9.108;2023-07-24T05:13:47;12.83;;;9.20;;
18360;SDS011;9308;48.550;9.108;2023-07-24T05:16:13;11.20;;;7.87;;
18360;SDS011;9308;48.550;9.108;2023-07-24T05:18:38;10.20;;;7.80;;
18360;SDS011;9308;48.550;9.108;2023-07-24T05:21:03;9.10;;;7.23;;
18360;SDS011;9308;48.550;9.108;2023-07-24T05:23:29;10.43;;;8.57;;
18360;SDS011;9308;48.550;9.108;2023-07-24T05:25:58;13.80;;;8.73;;
18360;SDS011;9308;48.550;9.108;2023-07-24T05:28:24;9.00;;;8.10;;
18360;SDS011;9308;48.550;9.108;2023-07-24T05:30:53;11.27;;;8.67;;
18360;SDS011;9308;48.550;9.108;2023-07-24T05:33:19;11.17;;;8.57;;
18360;SDS011;9308;48.550;9.108;2023-07-24T05:35:44;10.63;;;7.90;;
18360;SDS011;9308;48.550;9.108;2023-07-24T05:38:10;11.50;;;8.23;;
18360;SDS011;9308;48.550;9.108;2023-07-24T05:40:35;11.80;;;8.37;;
18360;SDS011;9308;48.550;9.108;2023-07-24T05:43:01;10.03;;;9.00;;
18360;SDS011;9308;48.550;9.108;2023-07-24T05:45:26;11.43;;;8.83;;
18360;SDS011;9308;48.550;9.108;2023-07-24T05:47:52;10.53;;;8.93;;
18360;SDS011;9308;48.550;9.108;2023-07-24T05:50:18;11.07;;;8.67;;
18360;SDS011;9308;48.550;9.108;2023-07-24T05:52:43;11.97;;;9.40;;
18360;SDS011;9308;48.550;9.108;2023-07-24T05:55:09;10.20;;;7.90;;
18360;SDS011;9308;48.550;9.108;2023-07-24T05:57:35;10.37;;;8.13;;
18360;SDS011;9308;48.550;9.108;2023-07-24T06:00:01;10.13;;;8.83;;
18360;SDS011;9308;48.550;9.108;2023-07-24T06:02:26;11.50;;;8.20;;
18360;SDS011;9308;48.550;9.108;2023-07-24T06:04:52;11.83;;;8.57;;
18360;SDS011;9308;48.550;9.108;2023-07-24T06:07:17;12.67;;;9.17;;
18360;SDS011;9308;48.550;9.108;2023-07-24T06:09:43;11.47;;;8.20;;
18360;SDS011;9308;48.550;9.108;2023-07-24T06:12:08;12.33;;;8.57;;
18360;SDS011;9308;48.550;9.108;2023-07-24T06:14:33;11.20;;;9.10;;
18360;SDS011;9308;48.550;9.108;2023-07-24T06:16:59;11.83;;;8.87;;
18360;SDS011;9308;48.550;9.108;2023-07-24T06:19:24;10.27;;;8.40;;
18360;SDS011;9308;48.550;9.108;2023-07-24T06:21:50;12.63;;;9.40;;
18360;SDS011;9308;48.550;9.108;2023-07-24T06:24:15;11.60;;;9.10;;
18360;SDS011;9308;48.550;9.108;2023-07-24T06:26:40;11.53;;;8.73;;
18360;SDS011;9308;48.550;9.108;2023-07-24T06:29:06;13.47;;;9.27;;
18360;SDS011;9308;48.550;9.108;2023-07-24T06:31:31;11.40;;;9.23;;
18360;SDS011;9308;48.550;9.108;2023-07-24T06:33:57;10.53;;;8.87;;
18360;SDS011;9308;48.550;9.108;2023-07-24T06:36:22;13.60;;;9.40;;
18360;SDS011;9308;48.550;9.108;2023-07-24T06:38:48;10.63;;;8.90;;
18360;SDS011;9308;48.550;9.108;2023-07-24T06:41:14;10.63;;;7.90;;
18360;SDS011;9308;48.550;9.108;2023-07-24T06:43:40;10.23;;;8.60;;
18360;SDS011;9308;48.550;9.108;2023-07-24T06:46:07;10.37;;;8.93;;
18360;SDS011;9308;48.550;9.108;2023-07-24T06:48:32;11.93;;;8.43;;
18360;SDS011;9308;48.550;9.108;2023-07-24T06:50:58;11.30;;;8.80;;
18360;SDS011;9308;48.550;9.108;2023-07-24T06:53:23;10.97;;;8.47;;
18360;SDS011;9308;48.550;9.108;2023-07-24T06:55:49;12.10;;;8.63;;
18360;SDS011;9308;48.550;9.108;2023-07-24T06:58:14;9.90;;;8.50;;
18360;SDS011;9308;48.550;9.108;2023-07-24T07:00:39;10.80;;;9.30;;
18360;SDS011;9308;48.550;9.108;2023-07-24T07:03:05;10.63;;;8.33;;
18360;SDS011;9308;48.550;9.108;2023-07-24T07:05:33;11.17;;;8.40;;
18360;SDS011;9308;48.550;9.108;2023-07-24T07:07:59;11.00;;;8.53;;
18360;SDS011;9308;48.550;9.108;2023-07-24T07:10:24;11.63;;;8.53;;
18360;SDS011;9308;48.550;9.108;2023-07-24T07:12:50;13.30;;;10.17;;
18360;SDS011;9308;48.550;9.108;2023-07-24T07:15:15;13.67;;;9.80;;
18360;SDS011;9308;48.550;9.108;2023-07-24T07:17:41;10.93;;;8.93;;
18360;SDS011;9308;48.550;9.108;2023-07-24T07:20:07;13.10;;;9.40;;
18360;SDS011;9308;48.550;9.108;2023-07-24T07:22:32;9.63;;;8.70;;
18360;SDS011;9308;48.550;9.108;2023-07-24T07:24:58;9.50;;;8.60;;
18360;SDS011;9308;48.550;9.108;2023-07-24T07:27:23;10.90;;;7.83;;
18360;SDS011;9308;48.550;9.108;2023-07-24T07:29:49;9.93;;;8.47;;
18360;SDS011;9308;48.550;9.108;2023-07-24T07:32:14;10.13;;;8.93;;
18360;SDS011;9308;48.550;9.108;2023-07-24T07:34:40;9.87;;;8.87;;
18360;SDS011;9308;48.550;9.108;2023-07-24T07:37:05;8.40;;;7.50;;
18360;SDS011;9308;48.550;9.108;2023-07-24T07:39:31;10.10;;;8.50;;
18360;SDS011;9308;48.550;9.108;2023-07-24T07:41:57;9.63;;;8.43;;
18360;SDS011;9308;48.550;9.108;2023-07-24T07:44:23;10.90;;;8.50;;
18360;SDS011;9308;48.550;9.108;2023-07-24T07:46:48;9.60;;;8.30;;
18360;SDS011;9308;48.550;9.108;2023-07-24T07:49:14;13.43;;;8.83;;
18360;SDS011;9308;48.550;9.108;2023-07-24T07:51:39;9.77;;;8.30;;
18360;SDS011;9308;48.550;9.108;2023-07-24T07:54:05;9.43;;;8.43;;
18360;SDS011;9308;48.550;9.108;2023-07-24T07:56:30;11.80;;;8.47;;
18360;SDS011;9308;48.550;9.108;2023-07-24T07:58:56;12.33;;;9.17;;
18360;SDS011;9308;48.550;9.108;2023-07-24T08:01:21;10.00;;;8.20;;
18360;SDS011;9308;48.550;9.108;2023-07-24T08:03:47;10.37;;;9.07;;
18360;SDS011;9308;48.550;9.108;2023-07-24T08:06:12;10.20;;;8.20;;
18360;SDS011;9308;48.550;9.108;2023-07-24T08:08:38;9.30;;;8.37;;
18360;SDS011;9308;48.550;9.108;2023-07-24T08:11:04;11.70;;;8.37;;
18360;SDS011;9308;48.550;9.108;2023-07-24T08:13:33;10.40;;;8.60;;
18360;SDS011;9308;48.550;9.108;2023-07-24T08:15:59;10.03;;;8.13;;
18360;SDS011;9308;48.550;9.108;2023-07-24T08:18:26;11.27;;;8.50;;
18360;SDS011;9308;48.550;9.108;2023-07-24T08:20:51;10.53;;;7.67;;
18360;SDS011;9308;48.550;9.108;2023-07-24T08:23:17;9.77;;;7.90;;
18360;SDS011;9308;48.550;9.108;2023-07-24T08:25:52;9.40;;;7.23;;
18360;SDS011;9308;48.550;9.108;2023-07-24T08:28:18;10.77;;;8.30;;
18360;SDS011;9308;48.550;9.108;2023-07-24T08:30:44;9.80;;;8.20;;
18360;SDS011;9308;48.550;9.108;2023-07-24T08:33:09;9.90;;;8.00;;
18360;SDS011;9308;48.550;9.108;2023-07-24T08:35:34;8.80;;;7.90;;
18360;SDS011;9308;48.550;9.108;2023-07-24T08:38:00;8.87;;;7.60;;
18360;SDS011;9308;48.550;9.108;2023-07-24T08:40:25;7.87;;;7.07;;
18360;SDS011;9308;48.550;9.108;2023-07-24T08:42:51;8.87;;;7.30;;
18360;SDS011;9308;48.550;9.108;2023-07-24T08:45:17;8.90;;;7.03;;
18360;SDS011;9308;48.550;9.108;2023-07-24T08:47:44;7.97;;;6.90;;
18360;SDS011;9308;48.550;9.108;2023-07-24T08:50:09;8.03;;;6.63;;
18360;SDS011;9308;48.550;9.108;2023-07-24T08:52:37;6.90;;;6.27;;
18360;SDS011;9308;48.550;9.108;2023-07-24T08:55:05;6.43;;;5.80;;
18360;SDS011;9308;48.550;9.108;2023-07-24T08:57:32;6.60;;;5.90;;
18360;SDS011;9308;48.550;9.108;2023-07-24T08:59:57;6.77;;;5.80;;
18360;SDS011;9308;48.550;9.108;2023-07-24T09:02:23;7.10;;;5.57;;
18360;SDS011;9308;48.550;9.108;2023-07-24T09:04:49;7.33;;;5.30;;
18360;SDS011;9308;48.550;9.108;2023-07-24T09:07:14;6.40;;;5.30;;
18360;SDS011;9308;48.550;9.108;2023-07-24T09:09:40;7.87;;;5.80;;
18360;SDS011;9308;48.550;9.108;2023-07-24T09:12:05;7.40;;;6.40;;
18360;SDS011;9308;48.550;9.108;2023-07-24T09:14:31;6.53;;;5.50;;
18360;SDS011;9308;48.550;9.108;2023-07-24T09:17:09;6.20;;;5.60;;
18360;SDS011;9308;48.550;9.108;2023-07-24T09:19:35;6.90;;;5.43;;
18360;SDS011;9308;48.550;9.108;2023-07-24T09:22:11;6.50;;;5.70;;
18360;SDS011;9308;48.550;9.108;2023-07-24T09:24:48;6.33;;;5.17;;
18360;SDS011;9308;48.550;9.108;2023-07-24T09:27:15;7.43;;;5.40;;
18360;SDS011;9308;48.550;9.108;2023-07-24T09:29:40;7.77;;;5.47;;
18360;SDS011;9308;48.550;9.108;2023-07-24T09:32:07;7.83;;;5.97;;
18360;SDS011;9308;48.550;9.108;2023-07-24T09:34:32;7.17;;;6.23;;
18360;SDS011;9308;48.550;9.108;2023-07-24T09:36:58;7.40;;;6.00;;
18360;SDS011;9308;48.550;9.108;2023-07-24T09:39:24;6.10;;;5.00;;
18360;SDS011;9308;48.550;9.108;2023-07-24T09:41:51;6.23;;;5.40;;
18360;SDS011;9308;48.550;9.108;2023-07-24T09:44:17;9.83;;;6.30;;
18360;SDS011;9308;48.550;9.108;2023-07-24T09:46:43;6.80;;;5.97;;
18360;SDS011;9308;48.550;9.108;2023-07-24T09:49:08;7.27;;;6.50;;
18360;SDS011;9308;48.550;9.108;2023-07-24T09:51:34;7.33;;;6.03;;
18360;SDS011;9308;48.550;9.108;2023-07-24T09:54:10;6.67;;;5.83;;
18360;SDS011;9308;48.550;9.108;2023-07-24T09:56:41;8.00;;;5.90;;
18360;SDS011;9308;48.550;9.108;2023-07-24T09:59:07;8.50;;;7.07;;
18360;SDS011;9308;48.550;9.108;2023-07-24T10:01:35;9.33;;;7.97;;
18360;SDS011;9308;48.550;9.108;2023-07-24T10:04:02;8.10;;;6.63;;
18360;SDS011;9308;48.550;9.108;2023-07-24T10:06:29;11.53;;;6.90;;
18360;SDS011;9308;48.550;9.108;2023-07-24T10:08:55;6.33;;;5.70;;
18360;SDS011;9308;48.550;9.108;2023-07-24T10:11:21;7.90;;;6.60;;
18360;SDS011;9308;48.550;9.108;2023-07-24T10:13:47;7.17;;;6.47;;
18360;SDS011;9308;48.550;9.108;2023-07-24T10:16:13;9.13;;;6.50;;
18360;SDS011;9308;48.550;9.108;2023-07-24T10:18:42;8.77;;;7.20;;
18360;SDS011;9308;48.550;9.108;2023-07-24T10:21:10;7.93;;;7.13;;
18360;SDS011;9308;48.550;9.108;2023-07-24T10:23:43;7.67;;;6.73;;
18360;SDS011;9308;48.550;9.108;2023-07-24T10:26:11;8.37;;;6.77;;
18360;SDS011;9308;48.550;9.108;2023-07-24T10:28:37;9.90;;;7.30;;
18360;SDS011;9308;48.550;9.108;2023-07-24T10:31:18;7.80;;;6.77;;
18360;SDS011;9308;48.550;9.108;2023-07-24T10:33:44;10.07;;;6.70;;
18360;SDS011;9308;48.550;9.108;2023-07-24T10:36:10;8.13;;;7.10;;
18360;SDS011;9308;48.550;9.108;2023-07-24T10:38:40;8.50;;;6.60;;
18360;SDS011;9308;48.550;9.108;2023-07-24T10:41:07;7.77;;;6.67;;
18360;SDS011;9308;48.550;9.108;2023-07-24T10:43:40;9.63;;;6.40;;
18360;SDS011;9308;48.550;9.108;2023-07-24T10:46:14;7.40;;;6.70;;
18360;SDS011;9308;48.550;9.108;2023-07-24T10:48:44;8.17;;;6.40;;
18360;SDS011;9308;48.550;9.108;2023-07-24T10:51:11;8.67;;;7.40;;
18360;SDS011;9308;48.550;9.108;2023-07-24T10:53:41;8.93;;;8.00;;
18360;SDS011;9308;48.550;9.108;2023-07-24T10:56:08;8.40;;;6.80;;
18360;SDS011;9308;48.550;9.108;2023-07-24T10:58:34;6.80;;;6.13;;
18360;SDS011;9308;48.550;9.108;2023-07-24T11:01:03;7.27;;;6.57;;
18360;SDS011;9308;48.550;9.108;2023-07-24T11:03:30;8.13;;;7.03;;
18360;SDS011;9308;48.550;9.108;2023-07-24T11:05:56;8.87;;;6.90;;
18360;SDS011;9308;48.550;9.108;2023-07-24T11:08:23;7.67;;;6.60;;
18360;SDS011;9308;48.550;9.108;2023-07-24T11:10:49;8.10;;;6.53;;
18360;SDS011;9308;48.550;9.108;2023-07-24T11:13:16;7.63;;;6.93;;
18360;SDS011;9308;48.550;9.108;2023-07-24T11:15:42;9.50;;;6.43;;
18360;SDS011;9308;48.550;9.108;2023-07-24T11:18:08;8.40;;;7.40;;
18360;SDS011;9308;48.550;9.108;2023-07-24T11:20:37;8.90;;;7.50;;
18360;SDS011;9308;48.550;9.108;2023-07-24T11:23:03;9.00;;;7.60;;
18360;SDS011;9308;48.550;9.108;2023-07-24T11:25:29;14.37;;;8.90;;
18360;SDS011;9308;48.550;9.108;2023-07-24T11:27:54;9.00;;;8.10;;
18360;SDS011;9308;48.550;9.108;2023-07-24T11:30:20;9.30;;;7.80;;
18360;SDS011;9308;48.550;9.108;2023-07-24T11:32:46;9.20;;;6.70;;
18360;SDS011;9308;48.550;9.108;2023-07-24T11:35:12;7.67;;;6.83;;
18360;SDS011;9308;48.550;9.108;2023-07-24T11:37:38;7.40;;;6.10;;
18360;SDS011;9308;48.550;9.108;2023-07-24T11:40:04;8.03;;;7.13;;
18360;SDS011;9308;48.550;9.108;2023-07-24T11:42:35;10.23;;;6.90;;
18360;SDS011;9308;48.550;9.108;2023-07-24T11:45:02;8.13;;;7.33;;
18360;SDS011;9308;48.550;9.108;2023-07-24T11:47:28;7.73;;;6.93;;
18360;SDS011;9308;48.550;9.108;2023-07-24T11:49:59;7.00;;;6.30;;
18360;SDS011;9308;48.550;9.108;2023-07-24T11:52:25;7.80;;;6.77;;
18360;SDS011;9308;48.550;9.108;2023-07-24T11:54:57;7.73;;;6.40;;
18360;SDS011;9308;48.550;9.108;2023-07-24T11:57:28;7.03;;;6.33;;
18360;SDS011;9308;48.550;9.108;2023-07-24T11:59:54;7.57;;;6.17;;
18360;SDS011;9308;48.550;9.108;2023-07-24T12:02:22;5.93;;;5.30;;
18360;SDS011;9308;48.550;9.108;2023-07-24T12:04:52;6.53;;;5.83;;
18360;SDS011;9308;48.550;9.108;2023-07-24T12:07:19;9.83;;;6.40;;
18360;SDS011;9308;48.550;9.108;2023-07-24T12:09:50;5.60;;;5.10;;
18360;SDS011;9308;48.550;9.108;2023-07-24T12:12:17;6.60;;;5.43;;
18360;SDS011;9308;48.550;9.108;2023-07-24T12:14:43;7.23;;;5.30;;
18360;SDS011;9308;48.550;9.108;2023-07-24T12:17:08;5.53;;;5.00;;
18360;SDS011;9308;48.550;9.108;2023-07-24T12:19:37;6.03;;;5.30;;
18360;SDS011;9308;48.550;9.108;2023-07-24T12:22:03;6.93;;;5.07;;
18360;SDS011;9308;48.550;9.108;2023-07-24T12:24:29;5.93;;;5.20;;
18360;SDS011;9308;48.550;9.108;2023-07-24T12:26:54;5.53;;;5.03;;
18360;SDS011;9308;48.550;9.108;2023-07-24T12:29:20;6.20;;;5.60;;
18360;SDS011;9308;48.550;9.108;2023-07-24T12:31:45;8.47;;;5.77;;
18360;SDS011;9308;48.550;9.108;2023-07-24T12:34:11;5.80;;;5.20;;
18360;SDS011;9308;48.550;9.108;2023-07-24T12:36:36;7.03;;;5.50;;
18360;SDS011;9308;48.550;9.108;2023-07-24T12:39:02;7.80;;;5.23;;
18360;SDS011;9308;48.550;9.108;2023-07-24T12:41:27;5.87;;;5.27;;
18360;SDS011;9308;48.550;9.108;2023-07-24T12:43:53;5.40;;;4.90;;
18360;SDS011;9308;48.550;9.108;2023-07-24T12:46:18;4.53;;;4.13;;
18360;SDS011;9308;48.550;9.108;2023-07-24T12:48:43;7.43;;;6.27;;
18360;SDS011;9308;48.550;9.108;2023-07-24T12:51:09;5.33;;;4.60;;
18360;SDS011;9308;48.550;9.108;2023-07-24T12:53:34;4.50;;;4.10;;
18360;SDS011;9308;48.550;9.108;2023-07-24T12:56:00;7.67;;;4.73;;
18360;SDS011;9308;48.550;9.108;2023-07-24T12:58:25;5.10;;;4.37;;
18360;SDS011;9308;48.550;9.108;2023-07-24T13:00:51;6.53;;;4.30;;
18360;SDS011;9308;48.550;9.108;2023-07-24T13:03:16;5.10;;;4.60;;
18360;SDS011;9308;48.550;9.108;2023-07-24T13:05:42;5.50;;;5.00;;
18360;SDS011;9308;48.550;9.108;2023-07-24T13:08:07;7.27;;;4.80;;
18360;SDS011;9308;48.550;9.108;2023-07-24T13:10:32;5.97;;;4.67;;
18360;SDS011;9308;48.550;9.108;2023-07-24T13:12:58;4.50;;;4.10;;
18360;SDS011;9308;48.550;9.108;2023-07-24T13:15:23;5.03;;;4.53;;
18360;SDS011;9308;48.550;9.108;2023-07-24T13:17:49;5.30;;;4.80;;
18360;SDS011;9308;48.550;9.108;2023-07-24T13:20:14;4.63;;;4.23;;
18360;SDS011;9308;48.550;9.108;2023-07-24T13:22:40;4.90;;;4.50;;
18360;SDS011;9308;48.550;9.108;2023-07-24T13:25:08;5.03;;;4.60;;
18360;SDS011;9308;48.550;9.108;2023-07-24T13:27:33;6.37;;;4.77;;
18360;SDS011;9308;48.550;9.108;2023-07-24T13:29:59;4.67;;;4.27;;
18360;SDS011;9308;48.550;9.108;2023-07-24T13:32:24;4.80;;;4.33;;
18360;SDS011;9308;48.550;9.108;2023-07-24T13:34:50;5.40;;;4.90;;
18360;SDS011;9308;48.550;9.108;2023-07-24T13:37:16;5.90;;;5.00;;
18360;SDS011;9308;48.550;9.108;2023-07-24T13:39:41;5.40;;;4.23;;
18360;SDS011;9308;48.550;9.108;2023-07-24T13:42:07;5.10;;;4.53;;
18360;SDS011;9308;48.550;9.108;2023-07-24T13:44:32;5.30;;;4.40;;
18360;SDS011;9308;48.550;9.108;2023-07-24T13:46:58;5.70;;;4.63;;
18360;SDS011;9308;48.550;9.108;2023-07-24T13:49:23;5.27;;;4.17;;
18360;SDS011;9308;48.550;9.108;2023-07-24T13:51:48;4.80;;;4.40;;
18360;SDS011;9308;48.550;9.108;2023-07-24T13:54:14;5.50;;;4.43;;
18360;SDS011;9308;48.550;9.108;2023-07-24T13:56:39;5.17;;;4.67;;
18360;SDS011;9308;48.550;9.108;2023-07-24T13:59:05;5.30;;;4.80;;
18360;SDS011;9308;48.550;9.108;2023-07-24T14:01:30;6.17;;;4.93;;
18360;SDS011;9308;48.550;9.108;2023-07-24T14:03:56;4.50;;;4.10;;
18360;SDS011;9308;48.550;9.108;2023-07-24T14:06:21;4.93;;;4.43;;
18360;SDS011;9308;48.550;9.108;2023-07-24T14:08:47;4.70;;;4.30;;
18360;SDS011;9308;48.550;9.108;2023-07-24T14:11:12;4.00;;;3.60;;
18360;SDS011;9308;48.550;9.108;2023-07-24T14:13:37;4.50;;;4.07;;
18360;SDS011;9308;48.550;9.108;2023-07-24T14:16:03;4.70;;;4.17;;
18360;SDS011;9308;48.550;9.108;2023-07-24T14:18:28;4.87;;;4.47;;
18360;SDS011;9308;48.550;9.108;2023-07-24T14:20:54;5.90;;;4.10;;
18360;SDS011;9308;48.550;9.108;2023-07-24T14:23:21;4.63;;;3.83;;
18360;SDS011;9308;48.550;9.108;2023-07-24T14:25:47;4.00;;;3.50;;
18360;SDS011;9308;48.550;9.108;2023-07-24T14:28:12;4.30;;;3.90;;
18360;SDS011;9308;48.550;9.108;2023-07-24T14:30:38;3.70;;;3.40;;
18360;SDS011;9308;48.550;9.108;2023-07-24T14:33:03;3.87;;;3.50;;
18360;SDS011;9308;48.550;9.108;2023-07-24T14:35:29;4.03;;;3.70;;
18360;SDS011;9308;48.550;9.108;2023-07-24T14:37:54;4.73;;;4.27;;
18360;SDS011;9308;48.550;9.108;2023-07-24T14:40:19;4.10;;;3.70;;
18360;SDS011;9308;48.550;9.108;2023-07-24T14:42:45;4.93;;;3.77;;
18360;SDS011;9308;48.550;9.108;2023-07-24T14:45:10;3.87;;;3.40;;
18360;SDS011;9308;48.550;9.108;2023-07-24T14:47:36;3.90;;;3.60;;
18360;SDS011;9308;48.550;9.108;2023-07-24T14:50:01;5.70;;;3.70;;
18360;SDS011;9308;48.550;9.108;2023-07-24T14:52:27;4.30;;;3.90;;
18360;SDS011;9308;48.550;9.108;2023-07-24T14:54:52;5.83;;;3.70;;